createdAt,value
2017-08-17T14:25:45.496Z,1006.16
2017-08-17T14:26:26.004Z,1006.25
2017-08-17T14:27:06.512Z,1006.08
2017-08-17T14:27:47.047Z,1005.95
2017-08-17T14:28:27.525Z,1006.12
2017-08-17T14:29:08.972Z,1005.93
2017-08-17T14:29:49.457Z,1005.91
2017-08-17T14:30:29.949Z,1006
2017-08-17T14:31:10.451Z,1006.02
2017-08-17T14:31:50.937Z,1006.08
2017-08-17T14:32:31.439Z,1006.02
2017-08-17T14:33:11.924Z,1006.02
2017-08-17T14:33:52.436Z,1006.49
2017-08-17T14:34:32.970Z,1006.75
2017-08-17T14:35:13.445Z,1007.21
2017-08-17T14:35:53.933Z,1007.27
2017-08-17T14:36:34.438Z,1007.08
2017-08-17T14:37:14.930Z,1006.77
2017-08-17T14:39:27.743Z,1006.57
2017-08-17T14:40:08.180Z,1006.38
2017-08-17T14:40:48.664Z,1006.32
2017-08-17T14:41:29.175Z,1006.25
2017-08-17T14:42:09.676Z,1006.11
2017-08-17T14:42:50.196Z,1006.11
2017-08-17T14:43:30.680Z,1006.08
2017-08-17T14:44:11.182Z,1006.08
2017-08-17T14:46:24.094Z,1006.05
2017-08-17T14:47:04.587Z,1006.09
2017-08-17T14:47:45.139Z,1006.09
2017-08-17T14:50:13.417Z,1006.06
2017-08-17T14:50:53.872Z,1006.04
2017-08-17T14:51:34.549Z,1006.04
2017-08-17T14:52:15.005Z,1006.08
2017-08-17T14:52:55.524Z,1006.11
2017-08-17T14:53:36.028Z,1006.08
2017-08-17T14:54:16.525Z,1006.11
2017-08-17T14:56:29.796Z,1006.13
2017-08-17T14:57:10.350Z,1006.15
2017-08-17T14:57:50.955Z,1006.18
2017-08-17T14:58:31.527Z,1006.14
2017-08-17T14:59:12.188Z,1006.16
2017-08-17T14:59:52.753Z,1006.15
2017-08-17T15:00:33.268Z,1006.12
2017-08-17T15:01:13.896Z,1006.1
2017-08-17T15:01:54.494Z,1006.08
2017-08-17T15:02:34.911Z,1006.06
2017-08-17T15:03:15.467Z,1006.09
2017-08-17T15:03:55.970Z,1006.04
2017-08-17T15:04:36.576Z,1005.99
2017-08-17T15:05:17.047Z,1005.99
2017-08-17T15:05:57.537Z,1005.95
2017-08-17T15:06:38.355Z,1005.92
2017-08-17T15:07:18.933Z,1005.91
2017-08-17T15:07:59.544Z,1005.95
2017-08-17T15:08:40.084Z,1005.98
2017-08-17T15:09:20.701Z,1006.01
2017-08-17T15:10:01.225Z,1006.05
2017-08-17T15:10:41.748Z,1006.05
2017-08-17T15:11:22.255Z,1006.12
2017-08-17T15:12:02.742Z,1006.07
2017-08-17T15:12:43.851Z,1006
2017-08-17T15:13:25.108Z,1006.01
2017-08-17T15:14:05.647Z,1005.99
2017-08-17T15:14:46.451Z,1006
2017-08-17T15:15:27.366Z,1005.98
2017-08-17T15:16:07.976Z,1006.02
2017-08-17T15:16:48.594Z,1006.04
2017-08-17T15:17:29.181Z,1006.01
2017-08-17T15:18:09.755Z,1006.04
2017-08-17T15:18:50.262Z,1006.05
2017-08-17T15:19:31.110Z,1006.08
2017-08-17T15:20:11.757Z,1006
2017-08-17T15:20:52.303Z,1006.02
2017-08-17T15:21:32.910Z,1006.06
2017-08-17T15:22:13.239Z,1006.06
2017-08-17T15:22:53.718Z,1006.06
2017-08-17T15:23:34.181Z,1006.13
2017-08-17T15:24:14.621Z,1006.2
2017-08-17T15:26:12.272Z,1006.37
2017-08-17T15:26:52.762Z,1006.52
2017-08-17T15:27:33.266Z,1006.36
2017-08-17T15:28:13.841Z,1006.3
2017-08-17T15:28:54.516Z,1006.29
2017-08-17T15:29:35.032Z,1006.29
2017-08-17T15:30:15.636Z,1006.43
2017-08-17T15:30:59.600Z,1006.32
2017-08-17T15:31:40.691Z,1006.42
2017-08-17T15:32:21.228Z,1006.44
2017-08-17T15:33:01.732Z,1006.68
2017-08-17T15:33:42.241Z,1006.7
2017-08-17T15:34:22.729Z,1006.82
2017-08-17T15:35:03.226Z,1006.97
2017-08-17T15:37:21.288Z,1006.4
2017-08-17T15:38:01.712Z,1006.29
2017-08-17T15:38:42.203Z,1006.27
2017-08-17T15:39:22.760Z,1006.31
2017-08-17T15:41:40.541Z,1006.24
2017-08-17T15:42:21.048Z,1006.21
2017-08-17T15:43:01.553Z,1006.15
2017-08-17T15:43:42.060Z,1006.14
2017-08-17T15:44:22.533Z,1006
2017-08-17T15:45:03.004Z,1005.94
2017-08-17T15:47:20.947Z,1006
2017-08-17T15:48:01.406Z,1005.97
2017-08-17T15:48:41.899Z,1005.93
2017-08-17T15:49:22.293Z,1006
2017-08-17T15:50:03.327Z,1005.94
2017-08-17T15:50:43.722Z,1005.95
2017-08-17T15:51:24.244Z,1005.96
2017-08-17T15:52:04.720Z,1005.95
2017-08-17T15:52:45.371Z,1005.9
2017-08-17T15:53:25.647Z,1005.93
2017-08-17T15:54:06.183Z,1005.93
2017-08-17T15:54:46.830Z,1005.87
2017-08-17T15:55:27.298Z,1005.95
2017-08-17T15:56:07.772Z,1005.94
2017-08-17T15:56:48.353Z,1005.97
2017-08-17T15:57:28.812Z,1005.98
2017-08-17T15:59:26.584Z,1005.96
2017-08-17T16:00:06.977Z,1005.85
2017-08-17T16:00:47.517Z,1005.96
2017-08-17T16:01:28.377Z,1005.91
2017-08-17T16:02:08.800Z,1005.97
2017-08-17T16:02:49.509Z,1006.03
2017-08-17T16:03:30.249Z,1006.02
2017-08-17T16:04:10.745Z,1006.02
2017-08-17T16:06:03.460Z,1006
2017-08-17T16:06:43.853Z,1005.99
2017-08-17T16:07:25.264Z,1005.99
2017-08-17T16:08:05.693Z,1005.92
2017-08-17T16:08:46.299Z,1005.99
2017-08-17T16:09:27.658Z,1005.98
2017-08-17T16:10:08.120Z,1005.93
2017-08-17T16:10:48.744Z,1005.94
2017-08-17T16:11:29.236Z,1005.95
2017-08-17T16:12:09.785Z,1006
2017-08-17T16:12:50.689Z,1006.02
2017-08-17T16:13:31.255Z,1006.04
2017-08-17T16:14:11.757Z,1006.04
2017-08-17T16:16:39.914Z,1005.91
2017-08-17T16:17:20.386Z,1005.85
2017-08-17T16:18:00.896Z,1005.87
2017-08-17T16:18:41.400Z,1005.87
2017-08-17T16:19:21.895Z,1005.89
2017-08-17T16:20:02.367Z,1005.86
2017-08-17T16:20:42.861Z,1005.88
2017-08-17T16:21:23.346Z,1005.83
2017-08-17T16:22:03.787Z,1005.85
2017-08-17T16:22:44.246Z,1005.84
2017-08-17T16:25:02.765Z,1005.85
2017-08-17T16:25:43.237Z,1005.89
2017-08-17T16:26:23.710Z,1005.81
2017-08-17T16:27:04.201Z,1005.78
2017-08-17T16:27:44.691Z,1005.8
2017-08-17T16:28:25.178Z,1005.83
2017-08-17T16:29:05.685Z,1005.87
2017-08-17T16:29:46.191Z,1005.85
2017-08-17T16:30:26.693Z,1005.83
2017-08-17T16:31:07.172Z,1005.81
2017-08-17T16:31:47.657Z,1005.83
2017-08-17T16:32:28.162Z,1005.83
2017-08-17T16:34:56.595Z,1005.83
2017-08-17T16:35:37.058Z,1005.83
2017-08-17T16:36:17.521Z,1005.84
2017-08-17T16:36:58.030Z,1005.82
2017-08-17T16:39:16.040Z,1005.75
2017-08-17T16:39:56.324Z,1005.78
2017-08-17T16:40:36.996Z,1005.75
2017-08-17T16:41:17.462Z,1005.73
2017-08-17T16:41:58.001Z,1005.72
2017-08-17T16:42:38.511Z,1005.7
2017-08-17T16:43:19.011Z,1005.66
2017-08-17T16:43:59.689Z,1005.72
2017-08-17T16:46:18.212Z,1005.69
2017-08-17T16:46:58.662Z,1005.69
2017-08-17T16:47:39.135Z,1005.67
2017-08-17T16:48:19.613Z,1005.65
2017-08-17T16:49:00.060Z,1005.65
2017-08-17T16:49:40.544Z,1005.63
2017-08-17T16:50:21.032Z,1005.65
2017-08-17T16:51:01.549Z,1005.64
2017-08-17T16:51:41.984Z,1005.64
2017-08-17T16:54:09.943Z,1005.66
2017-08-17T16:54:50.412Z,1005.65
2017-08-17T16:55:30.915Z,1005.65
2017-08-17T16:56:11.420Z,1005.66
2017-08-17T16:56:51.902Z,1005.66
2017-08-17T16:57:32.412Z,1005.66
2017-08-17T16:58:12.940Z,1005.67
2017-08-17T16:58:53.433Z,1005.65
2017-08-17T16:59:33.944Z,1005.62
2017-08-17T17:00:14.438Z,1005.61
2017-08-17T17:00:54.930Z,1005.59
2017-08-17T17:01:35.419Z,1005.55
2017-08-17T17:02:15.918Z,1005.47
2017-08-17T17:02:56.393Z,1005.54
2017-08-17T17:03:36.906Z,1005.51
2017-08-17T17:04:17.401Z,1005.49
2017-08-17T17:04:57.887Z,1005.48
2017-08-17T17:05:38.377Z,1005.47
2017-08-17T17:06:18.856Z,1005.46
2017-08-17T17:06:59.361Z,1005.44
2017-08-17T17:07:39.856Z,1005.41
2017-08-17T17:08:20.341Z,1005.44
2017-08-17T17:09:00.837Z,1005.4
2017-08-17T17:09:41.330Z,1005.46
2017-08-17T17:10:21.817Z,1005.39
2017-08-17T17:11:02.316Z,1005.43
2017-08-17T17:11:42.795Z,1005.43
2017-08-17T17:12:23.295Z,1005.44
2017-08-17T17:13:03.790Z,1005.43
2017-08-17T17:13:44.291Z,1005.47
2017-08-17T17:14:24.780Z,1005.42
2017-08-17T17:15:05.263Z,1005.42
2017-08-17T17:15:45.764Z,1005.39
2017-08-17T17:16:26.265Z,1005.42
2017-08-17T17:17:06.762Z,1005.42
2017-08-17T17:17:47.271Z,1005.44
2017-08-17T17:18:27.751Z,1005.44
2017-08-17T17:19:08.251Z,1005.46
2017-08-17T17:19:48.748Z,1005.47
2017-08-17T17:20:29.239Z,1005.42
2017-08-17T17:21:09.728Z,1005.45
2017-08-17T17:21:50.229Z,1005.42
2017-08-17T17:22:30.721Z,1005.37
2017-08-17T17:23:11.211Z,1005.4
2017-08-17T17:23:51.702Z,1005.4
2017-08-17T17:24:32.181Z,1005.43
2017-08-17T17:25:12.680Z,1005.38
2017-08-17T17:25:53.192Z,1005.38
2017-08-17T17:26:33.684Z,1005.36
2017-08-17T17:27:14.190Z,1005.39
2017-08-17T17:27:54.680Z,1005.38
2017-08-17T17:28:35.176Z,1005.34
2017-08-17T17:29:15.675Z,1005.4
2017-08-17T17:29:56.149Z,1005.4
2017-08-17T17:30:36.650Z,1005.42
2017-08-17T17:31:17.147Z,1005.44
2017-08-17T17:31:57.645Z,1005.45
2017-08-17T17:32:38.130Z,1005.48
2017-08-17T17:33:18.626Z,1005.49
2017-08-17T17:33:59.124Z,1005.54
2017-08-17T17:34:39.605Z,1005.54
2017-08-17T17:35:20.106Z,1005.54
2017-08-17T17:36:00.593Z,1005.52
2017-08-17T17:36:41.082Z,1005.52
2017-08-17T17:37:21.581Z,1005.52
2017-08-17T17:38:02.079Z,1005.52
2017-08-17T17:38:42.559Z,1005.52
2017-08-17T17:39:23.054Z,1005.46
2017-08-17T17:40:03.557Z,1005.5
2017-08-17T17:40:44.052Z,1005.47
2017-08-17T17:41:24.551Z,1005.52
2017-08-17T17:42:05.057Z,1005.5
2017-08-17T17:42:45.553Z,1005.5
2017-08-17T17:43:26.047Z,1005.51
2017-08-17T17:44:06.552Z,1005.49
2017-08-17T17:44:47.037Z,1005.44
2017-08-17T17:45:27.527Z,1005.46
2017-08-17T17:47:40.305Z,1005.44
2017-08-17T17:48:20.847Z,1005.43
2017-08-17T17:49:01.267Z,1005.44
2017-08-17T17:49:41.717Z,1005.47
2017-08-17T17:50:22.204Z,1005.47
2017-08-17T17:51:02.641Z,1005.46
2017-08-17T17:51:43.135Z,1005.5
2017-08-17T17:52:23.569Z,1005.45
2017-08-17T17:53:04.054Z,1005.49
2017-08-17T17:53:44.553Z,1005.48
2017-08-17T17:54:25.052Z,1005.5
2017-08-17T17:55:05.585Z,1005.46
2017-08-17T17:57:18.299Z,1005.46
2017-08-17T17:57:59.490Z,1005.48
2017-08-17T17:58:39.998Z,1005.45
2017-08-17T17:59:21.503Z,1005.44
2017-08-17T18:00:01.970Z,1005.41
2017-08-17T18:00:42.463Z,1005.41
2017-08-17T18:01:22.965Z,1005.41
2017-08-17T18:02:03.442Z,1005.42
2017-08-17T18:02:43.911Z,1005.37
2017-08-17T18:03:24.408Z,1005.41
2017-08-17T18:04:04.912Z,1005.37
2017-08-17T18:04:45.416Z,1005.39
2017-08-17T18:05:25.903Z,1005.38
2017-08-17T18:06:06.401Z,1005.39
2017-08-17T18:06:46.887Z,1005.36
2017-08-17T18:07:27.386Z,1005.38
2017-08-17T18:08:07.873Z,1005.37
2017-08-17T18:08:48.364Z,1005.35
2017-08-17T18:09:28.836Z,1005.32
2017-08-17T18:10:09.334Z,1005.34
2017-08-17T18:10:49.818Z,1005.34
2017-08-17T18:11:30.305Z,1005.32
2017-08-17T18:12:10.799Z,1005.32
2017-08-17T18:12:51.312Z,1005.33
2017-08-17T18:13:31.786Z,1005.33
2017-08-17T18:14:12.270Z,1005.35
2017-08-17T18:14:52.759Z,1005.33
2017-08-17T18:15:33.268Z,1005.32
2017-08-17T18:16:13.770Z,1005.32
2017-08-17T18:16:54.238Z,1005.32
2017-08-17T18:17:34.735Z,1005.27
2017-08-17T18:18:15.227Z,1005.25
2017-08-17T18:18:55.710Z,1005.29
2017-08-17T18:19:36.209Z,1005.27
2017-08-17T18:20:16.701Z,1005.24
2017-08-17T18:20:57.206Z,1005.26
2017-08-17T18:21:37.701Z,1005.26
2017-08-17T18:22:18.201Z,1005.22
2017-08-17T18:22:58.707Z,1005.21
2017-08-17T18:23:39.206Z,1005.21
2017-08-17T18:24:19.692Z,1005.23
2017-08-17T18:25:00.179Z,1005.21
2017-08-17T18:25:40.675Z,1005.2
2017-08-17T18:26:21.164Z,1005.25
2017-08-17T18:27:01.654Z,1005.19
2017-08-17T18:27:42.149Z,1005.21
2017-08-17T18:28:22.639Z,1005.24
2017-08-17T18:29:03.131Z,1005.22
2017-08-17T18:29:43.628Z,1005.25
2017-08-17T18:30:24.135Z,1005.25
2017-08-17T18:31:04.652Z,1005.27
2017-08-17T18:31:45.124Z,1005.3
2017-08-17T18:32:25.634Z,1005.25
2017-08-17T18:33:06.129Z,1005.27
2017-08-17T18:33:46.651Z,1005.24
2017-08-17T18:34:27.132Z,1005.21
2017-08-17T18:35:07.631Z,1005.22
2017-08-17T18:35:48.131Z,1005.2
2017-08-17T18:36:28.620Z,1005.2
2017-08-17T18:37:09.107Z,1005.17
2017-08-17T18:37:49.607Z,1005.18
2017-08-17T18:38:30.096Z,1005.2
2017-08-17T18:39:10.623Z,1005.2
2017-08-17T18:39:51.123Z,1005.19
2017-08-17T18:40:31.616Z,1005.18
2017-08-17T18:41:12.106Z,1005.2
2017-08-17T18:41:52.590Z,1005.23
2017-08-17T18:42:33.094Z,1005.26
2017-08-17T18:43:13.585Z,1005.22
2017-08-17T18:43:54.057Z,1005.23
2017-08-17T18:44:34.543Z,1005.26
2017-08-17T18:45:15.058Z,1005.23
2017-08-17T18:45:55.543Z,1005.26
2017-08-17T18:46:36.032Z,1005.28
2017-08-17T18:47:16.529Z,1005.31
2017-08-17T18:47:57.017Z,1005.28
2017-08-17T18:48:37.523Z,1005.33
2017-08-17T18:49:18.013Z,1005.3
2017-08-17T18:49:58.494Z,1005.31
2017-08-17T18:50:38.993Z,1005.27
2017-08-17T18:51:19.486Z,1005.27
2017-08-17T18:51:59.988Z,1005.29
2017-08-17T18:52:40.449Z,1005.26
2017-08-17T18:53:20.940Z,1005.31
2017-08-17T18:54:01.431Z,1005.32
2017-08-17T18:54:41.919Z,1005.29
2017-08-17T18:55:22.393Z,1005.31
2017-08-17T18:57:14.958Z,1005.32
2017-08-17T18:57:55.445Z,1005.31
2017-08-17T18:58:35.930Z,1005.33
2017-08-17T18:59:16.439Z,1005.34
2017-08-17T18:59:56.938Z,1005.32
2017-08-17T19:00:37.421Z,1005.34
2017-08-17T19:01:17.908Z,1005.31
2017-08-17T19:01:58.397Z,1005.31
2017-08-17T19:02:38.892Z,1005.32
2017-08-17T19:03:20.028Z,1005.31
2017-08-17T19:04:00.527Z,1005.31
2017-08-17T19:04:41.040Z,1005.3
2017-08-17T19:05:21.536Z,1005.29
2017-08-17T19:06:02.021Z,1005.32
2017-08-17T19:06:42.513Z,1005.34
2017-08-17T19:07:23.011Z,1005.38
2017-08-17T19:08:03.489Z,1005.38
2017-08-17T19:08:43.997Z,1005.36
2017-08-17T19:09:24.491Z,1005.37
2017-08-17T19:10:04.980Z,1005.37
2017-08-17T19:10:45.501Z,1005.33
2017-08-17T19:11:25.995Z,1005.33
2017-08-17T19:12:06.478Z,1005.34
2017-08-17T19:12:46.975Z,1005.36
2017-08-17T19:13:27.468Z,1005.4
2017-08-17T19:14:07.965Z,1005.36
2017-08-17T19:14:48.454Z,1005.37
2017-08-17T19:15:28.931Z,1005.36
2017-08-17T19:16:09.409Z,1005.41
2017-08-17T19:16:50.545Z,1005.41
2017-08-17T19:17:31.033Z,1005.39
2017-08-17T19:18:11.535Z,1005.38
2017-08-17T19:18:52.028Z,1005.39
2017-08-17T19:19:32.502Z,1005.38
2017-08-17T19:20:12.966Z,1005.37
2017-08-17T19:20:53.467Z,1005.37
2017-08-17T19:21:33.960Z,1005.38
2017-08-17T19:23:31.623Z,1005.37
2017-08-17T19:24:12.072Z,1005.39
2017-08-17T19:24:52.564Z,1005.37
2017-08-17T19:25:33.060Z,1005.39
2017-08-17T19:26:13.540Z,1005.4
2017-08-17T19:28:06.085Z,1005.43
2017-08-17T19:28:46.589Z,1005.49
2017-08-17T19:29:27.040Z,1005.48
2017-08-17T19:30:07.490Z,1005.48
2017-08-17T19:30:47.975Z,1005.5
2017-08-17T19:31:28.352Z,1005.49
2017-08-17T19:32:08.822Z,1005.53
2017-08-17T19:32:49.270Z,1005.53
2017-08-17T19:33:29.740Z,1005.59
2017-08-17T19:34:10.183Z,1005.56
2017-08-17T19:34:50.651Z,1005.58
2017-08-17T19:35:31.095Z,1005.54
2017-08-17T19:36:11.574Z,1005.55
2017-08-17T19:36:51.993Z,1005.56
2017-08-17T19:37:32.472Z,1005.56
2017-08-17T19:38:12.968Z,1005.54
2017-08-17T19:38:53.446Z,1005.54
2017-08-17T19:39:33.871Z,1005.52
2017-08-17T19:40:14.324Z,1005.53
2017-08-17T19:40:54.774Z,1005.53
2017-08-17T19:41:35.239Z,1005.49
2017-08-17T19:42:15.688Z,1005.52
2017-08-17T19:42:56.142Z,1005.51
2017-08-17T19:43:36.633Z,1005.52
2017-08-17T19:44:17.052Z,1005.53
2017-08-17T19:44:57.509Z,1005.53
2017-08-17T19:45:37.964Z,1005.54
2017-08-17T19:46:18.445Z,1005.54
2017-08-17T19:46:58.873Z,1005.56
2017-08-17T19:48:51.463Z,1005.5
2017-08-17T19:49:31.931Z,1005.57
2017-08-17T19:50:12.424Z,1005.55
2017-08-17T19:50:52.922Z,1005.55
2017-08-17T19:51:33.416Z,1005.55
2017-08-17T19:52:13.894Z,1005.51
2017-08-17T19:52:54.391Z,1005.5
2017-08-17T19:53:34.884Z,1005.49
2017-08-17T19:54:15.371Z,1005.51
2017-08-17T19:54:55.877Z,1005.53
2017-08-17T19:55:36.415Z,1005.52
2017-08-17T19:56:16.873Z,1005.52
2017-08-17T19:56:57.361Z,1005.52
2017-08-17T19:57:37.850Z,1005.53
2017-08-17T19:58:18.359Z,1005.51
2017-08-17T19:58:58.845Z,1005.5
2017-08-17T19:59:39.330Z,1005.47
2017-08-17T20:00:19.853Z,1005.49
2017-08-17T20:01:00.329Z,1005.49
2017-08-17T20:01:40.825Z,1005.5
2017-08-17T20:02:21.316Z,1005.51
2017-08-17T20:03:01.804Z,1005.55
2017-08-17T20:03:42.326Z,1005.59
2017-08-17T20:04:22.785Z,1005.6
2017-08-17T20:05:03.279Z,1005.59
2017-08-17T20:05:43.778Z,1005.62
2017-08-17T20:06:24.280Z,1005.58
2017-08-17T20:07:04.784Z,1005.61
2017-08-17T20:07:45.251Z,1005.62
2017-08-17T20:08:25.748Z,1005.62
2017-08-17T20:09:06.237Z,1005.62
2017-08-17T20:09:46.746Z,1005.64
2017-08-17T20:10:27.244Z,1005.6
2017-08-17T20:11:07.738Z,1005.57
2017-08-17T20:11:48.244Z,1005.58
2017-08-17T20:12:28.756Z,1005.59
2017-08-17T20:13:09.244Z,1005.56
2017-08-17T20:13:49.748Z,1005.53
2017-08-17T20:16:02.498Z,1005.48
2017-08-17T20:16:43.002Z,1005.46
2017-08-17T20:17:23.487Z,1005.44
2017-08-17T20:18:03.980Z,1005.44
2017-08-17T20:18:44.479Z,1005.48
2017-08-17T20:19:25.549Z,1005.48
2017-08-17T20:20:06.056Z,1005.48
2017-08-17T20:20:46.534Z,1005.47
2017-08-17T20:21:27.022Z,1005.48
2017-08-17T20:22:07.524Z,1005.48
2017-08-17T20:22:47.998Z,1005.47
2017-08-17T20:23:28.495Z,1005.47
2017-08-17T20:24:08.989Z,1005.46
2017-08-17T20:24:49.506Z,1005.51
2017-08-17T20:25:29.987Z,1005.51
2017-08-17T20:26:10.477Z,1005.5
2017-08-17T20:26:50.987Z,1005.53
2017-08-17T20:27:31.510Z,1005.54
2017-08-17T20:28:12.560Z,1005.52
2017-08-17T20:28:53.046Z,1005.55
2017-08-17T20:29:33.541Z,1005.56
2017-08-17T20:30:14.035Z,1005.56
2017-08-17T20:30:54.546Z,1005.57
2017-08-17T20:31:35.028Z,1005.54
2017-08-17T20:32:15.519Z,1005.55
2017-08-17T20:32:56.039Z,1005.55
2017-08-17T20:33:36.508Z,1005.57
2017-08-17T20:34:17.000Z,1005.58
2017-08-17T20:34:57.477Z,1005.58
2017-08-17T20:35:37.995Z,1005.57
2017-08-17T20:36:18.467Z,1005.59
2017-08-17T20:36:58.960Z,1005.54
2017-08-17T20:37:39.447Z,1005.56
2017-08-17T20:38:19.946Z,1005.58
2017-08-17T20:39:00.427Z,1005.62
2017-08-17T20:39:40.921Z,1005.62
2017-08-17T20:40:21.424Z,1005.6
2017-08-17T20:41:01.937Z,1005.62
2017-08-17T20:41:42.444Z,1005.62
2017-08-17T20:42:22.911Z,1005.6
2017-08-17T20:43:03.396Z,1005.63
2017-08-17T20:43:43.890Z,1005.61
2017-08-17T20:44:24.393Z,1005.58
2017-08-17T20:45:04.939Z,1005.62
2017-08-17T20:45:45.392Z,1005.59
2017-08-17T20:46:25.888Z,1005.59
2017-08-17T20:47:06.373Z,1005.58
2017-08-17T20:47:46.870Z,1005.54
2017-08-17T20:48:27.391Z,1005.56
2017-08-17T20:49:07.868Z,1005.54
2017-08-17T20:49:48.356Z,1005.52
2017-08-17T20:50:28.869Z,1005.53
2017-08-17T20:51:09.326Z,1005.54
2017-08-17T20:51:49.828Z,1005.53
2017-08-17T20:52:30.326Z,1005.52
2017-08-17T20:53:10.814Z,1005.54
2017-08-17T20:53:51.306Z,1005.51
2017-08-17T20:54:31.788Z,1005.51
2017-08-17T20:55:12.290Z,1005.49
2017-08-17T20:55:52.783Z,1005.5
2017-08-17T20:56:33.272Z,1005.51
2017-08-17T20:57:13.764Z,1005.51
2017-08-17T20:57:54.259Z,1005.51
2017-08-17T20:58:34.746Z,1005.52
2017-08-17T20:59:15.245Z,1005.51
2017-08-17T20:59:55.732Z,1005.48
2017-08-17T21:00:36.216Z,1005.5
2017-08-17T21:01:16.754Z,1005.52
2017-08-17T21:01:57.245Z,1005.52
2017-08-17T21:02:37.726Z,1005.51
2017-08-17T21:03:18.201Z,1005.51
2017-08-17T21:03:58.692Z,1005.5
2017-08-17T21:04:39.180Z,1005.54
2017-08-17T21:05:19.677Z,1005.53
2017-08-17T21:06:00.167Z,1005.52
2017-08-17T21:06:40.662Z,1005.53
2017-08-17T21:07:21.159Z,1005.54
2017-08-17T21:08:01.655Z,1005.51
2017-08-17T21:08:42.149Z,1005.54
2017-08-17T21:09:22.638Z,1005.54
2017-08-17T21:10:03.134Z,1005.57
2017-08-17T21:10:43.614Z,1005.51
2017-08-17T21:11:24.104Z,1005.5
2017-08-17T21:12:04.574Z,1005.54
2017-08-17T21:14:17.263Z,1005.53
2017-08-17T21:14:57.768Z,1005.52
2017-08-17T21:15:38.258Z,1005.53
2017-08-17T21:16:18.744Z,1005.54
2017-08-17T21:16:59.243Z,1005.5
2017-08-17T21:17:39.731Z,1005.57
2017-08-17T21:18:20.222Z,1005.57
2017-08-17T21:19:00.772Z,1005.56
2017-08-17T21:19:41.215Z,1005.58
2017-08-17T21:20:21.713Z,1005.62
2017-08-17T21:21:02.194Z,1005.62
2017-08-17T21:21:42.687Z,1005.65
2017-08-17T21:22:23.178Z,1005.67
2017-08-17T21:23:03.682Z,1005.68
2017-08-17T21:23:44.168Z,1005.64
2017-08-17T21:24:24.678Z,1005.68
2017-08-17T21:25:05.152Z,1005.69
2017-08-17T21:25:45.647Z,1005.68
2017-08-17T21:26:26.134Z,1005.68
2017-08-17T21:27:06.680Z,1005.7
2017-08-17T21:27:47.141Z,1005.72
2017-08-17T21:28:27.644Z,1005.73
2017-08-17T21:29:08.143Z,1005.74
2017-08-17T21:29:48.628Z,1005.72
2017-08-17T21:30:29.125Z,1005.71
2017-08-17T21:31:09.613Z,1005.76
2017-08-17T21:31:50.107Z,1005.73
2017-08-17T21:32:30.629Z,1005.68
2017-08-17T21:33:11.268Z,1005.7
2017-08-17T21:33:51.765Z,1005.69
2017-08-17T21:34:32.262Z,1005.66
2017-08-17T21:35:12.739Z,1005.69
2017-08-17T21:35:53.263Z,1005.66
2017-08-17T21:36:34.679Z,1005.66
2017-08-17T21:37:15.190Z,1005.65
2017-08-17T21:37:55.690Z,1005.65
2017-08-17T21:38:36.186Z,1005.69
2017-08-17T21:39:16.710Z,1005.69
2017-08-17T21:39:57.219Z,1005.7
2017-08-17T21:40:37.693Z,1005.68
2017-08-17T21:41:18.200Z,1005.68
2017-08-17T21:41:58.694Z,1005.67
2017-08-17T21:42:39.187Z,1005.66
2017-08-17T21:43:19.687Z,1005.67
2017-08-17T21:44:01.001Z,1005.67
2017-08-17T21:44:41.496Z,1005.64
2017-08-17T21:45:21.956Z,1005.65
2017-08-17T21:46:02.459Z,1005.65
2017-08-17T21:46:42.943Z,1005.66
2017-08-17T21:47:23.448Z,1005.67
2017-08-17T21:48:03.934Z,1005.72
2017-08-17T21:48:44.418Z,1005.67
2017-08-17T21:49:24.898Z,1005.71
2017-08-17T21:51:52.921Z,1005.72
2017-08-17T21:52:33.358Z,1005.71
2017-08-17T21:53:13.802Z,1005.69
2017-08-17T21:53:54.288Z,1005.73
2017-08-17T21:56:22.938Z,1005.74
2017-08-17T21:57:03.424Z,1005.71
2017-08-17T21:57:43.915Z,1005.7
2017-08-17T21:58:24.397Z,1005.72
2017-08-17T21:59:04.897Z,1005.68
2017-08-17T21:59:45.382Z,1005.69
2017-08-17T22:00:25.889Z,1005.7
2017-08-17T22:01:06.348Z,1005.7
2017-08-17T22:01:46.805Z,1005.72
2017-08-17T22:02:27.277Z,1005.73
2017-08-17T22:03:07.738Z,1005.74
2017-08-17T22:03:48.229Z,1005.73
2017-08-17T22:04:28.676Z,1005.74
2017-08-17T22:05:09.796Z,1005.77
2017-08-17T22:05:50.243Z,1005.74
2017-08-17T22:06:30.701Z,1005.79
2017-08-17T22:08:48.587Z,1005.8
2017-08-17T22:09:29.658Z,1005.8
2017-08-17T22:10:10.165Z,1005.79
2017-08-17T22:10:50.647Z,1005.78
2017-08-17T22:11:31.199Z,1005.76
2017-08-17T22:12:11.631Z,1005.74
2017-08-17T22:12:52.128Z,1005.77
2017-08-17T22:13:32.625Z,1005.74
2017-08-17T22:14:13.971Z,1005.73
2017-08-17T22:14:54.471Z,1005.7
2017-08-17T22:15:34.961Z,1005.68
2017-08-17T22:16:15.443Z,1005.64
2017-08-17T22:16:55.932Z,1005.63
2017-08-17T22:17:37.295Z,1005.63
2017-08-17T22:18:17.784Z,1005.64
2017-08-17T22:18:58.274Z,1005.64
2017-08-17T22:19:38.758Z,1005.65
2017-08-17T22:20:19.225Z,1005.63
2017-08-17T22:20:59.695Z,1005.65
2017-08-17T22:21:40.187Z,1005.65
2017-08-17T22:23:52.933Z,1005.67
2017-08-17T22:24:33.386Z,1005.67
2017-08-17T22:25:13.839Z,1005.68
2017-08-17T22:25:54.286Z,1005.68
2017-08-17T22:26:34.739Z,1005.68
2017-08-17T22:27:15.194Z,1005.68
2017-08-17T22:29:27.917Z,1005.72
2017-08-17T22:30:08.402Z,1005.69
2017-08-17T22:30:48.894Z,1005.67
2017-08-17T22:31:29.387Z,1005.71
2017-08-17T22:32:10.722Z,1005.71
2017-08-17T22:32:51.222Z,1005.72
2017-08-17T22:33:31.724Z,1005.71
2017-08-17T22:34:12.222Z,1005.7
2017-08-17T22:34:52.732Z,1005.69
2017-08-17T22:35:33.224Z,1005.65
2017-08-17T22:36:13.700Z,1005.71
2017-08-17T22:36:54.160Z,1005.68
2017-08-17T22:37:34.673Z,1005.7
2017-08-17T22:38:15.153Z,1005.68
2017-08-17T22:38:55.653Z,1005.69
2017-08-17T22:39:36.190Z,1005.69
2017-08-17T22:40:16.637Z,1005.69
2017-08-17T22:40:57.143Z,1005.68
2017-08-17T22:41:37.626Z,1005.72
2017-08-17T22:42:18.119Z,1005.72
2017-08-17T22:42:58.596Z,1005.68
2017-08-17T22:43:39.101Z,1005.71
2017-08-17T22:44:19.594Z,1005.69
2017-08-17T22:45:00.089Z,1005.7
2017-08-17T22:45:40.628Z,1005.72
2017-08-17T22:46:21.076Z,1005.72
2017-08-17T22:47:01.569Z,1005.7
2017-08-17T22:47:42.906Z,1005.65
2017-08-17T22:48:23.424Z,1005.68
2017-08-17T22:49:03.902Z,1005.67
2017-08-17T22:49:44.392Z,1005.7
2017-08-17T22:50:24.884Z,1005.67
2017-08-17T22:51:05.370Z,1005.69
2017-08-17T22:51:46.495Z,1005.68
2017-08-17T22:52:26.973Z,1005.69
2017-08-17T22:53:07.470Z,1005.68
2017-08-17T22:53:47.961Z,1005.66
2017-08-17T22:54:28.458Z,1005.66
2017-08-17T22:55:08.937Z,1005.7
2017-08-17T22:55:49.431Z,1005.7
2017-08-17T22:56:30.714Z,1005.71
2017-08-17T22:57:11.203Z,1005.74
2017-08-17T22:57:51.700Z,1005.74
2017-08-17T22:58:32.290Z,1005.7
2017-08-17T22:59:13.413Z,1005.71
2017-08-17T22:59:53.896Z,1005.72
2017-08-17T23:00:34.995Z,1005.7
2017-08-17T23:01:15.488Z,1005.72
2017-08-17T23:01:55.974Z,1005.74
2017-08-17T23:02:36.472Z,1005.73
2017-08-17T23:03:16.975Z,1005.73
2017-08-17T23:03:57.460Z,1005.74
2017-08-17T23:04:38.824Z,1005.73
2017-08-17T23:05:19.319Z,1005.69
2017-08-17T23:05:59.843Z,1005.67
2017-08-17T23:06:41.127Z,1005.69
2017-08-17T23:07:22.133Z,1005.66
2017-08-17T23:08:02.633Z,1005.67
2017-08-17T23:08:43.725Z,1005.66
2017-08-17T23:09:25.135Z,1005.65
2017-08-17T23:10:05.652Z,1005.62
2017-08-17T23:10:46.106Z,1005.65
2017-08-17T23:11:27.242Z,1005.64
2017-08-17T23:12:07.741Z,1005.62
2017-08-17T23:12:49.237Z,1005.65
2017-08-17T23:13:29.718Z,1005.63
2017-08-17T23:14:10.223Z,1005.65
2017-08-17T23:14:51.500Z,1005.65
2017-08-17T23:15:33.720Z,1005.63
2017-08-17T23:16:14.216Z,1005.63
2017-08-17T23:16:54.700Z,1005.63
2017-08-17T23:17:36.009Z,1005.65
2017-08-17T23:18:17.241Z,1005.59
2017-08-17T23:18:57.753Z,1005.64
2017-08-17T23:19:38.240Z,1005.62
2017-08-17T23:20:18.737Z,1005.59
2017-08-17T23:20:59.205Z,1005.6
2017-08-17T23:21:39.699Z,1005.58
2017-08-17T23:22:20.185Z,1005.64